createdAt,value
2022-12-11T00:02:06.424Z,81.67
2022-12-11T00:04:35.928Z,81.61
2022-12-11T00:07:04.321Z,82.05
2022-12-11T00:09:33.236Z,83.06
2022-12-11T00:12:02.569Z,82.19
2022-12-11T00:14:32.461Z,82.11
2022-12-11T00:17:02.501Z,81.39
2022-12-11T00:19:31.363Z,81.74
2022-12-11T00:21:59.825Z,82.45
2022-12-11T00:24:28.615Z,82.51
2022-12-11T00:26:56.984Z,82.71
2022-12-11T00:29:25.541Z,82.74
2022-12-11T00:31:53.972Z,82.45
2022-12-11T00:34:24.246Z,83.26
2022-12-11T00:36:52.972Z,82.78
2022-12-11T00:39:21.311Z,82.28
2022-12-11T00:41:49.637Z,82.60
2022-12-11T00:44:18.422Z,83.32
2022-12-11T00:46:46.755Z,82.62
2022-12-11T00:49:15.460Z,81.81
2022-12-11T00:51:45.153Z,81.54
2022-12-11T00:54:13.840Z,82.29
2022-12-11T00:56:42.301Z,81.88
2022-12-11T00:59:11.050Z,82.86
2022-12-11T01:01:39.247Z,82.45
2022-12-11T01:04:08.103Z,81.92
2022-12-11T01:06:36.365Z,81.93
2022-12-11T01:09:23.644Z,82.34
2022-12-11T01:11:51.891Z,81.85
2022-12-11T01:14:20.654Z,82.20
2022-12-11T01:16:48.981Z,82.99
2022-12-11T01:19:17.722Z,82.85
2022-12-11T01:21:46.050Z,83.24
2022-12-11T01:24:15.809Z,83.30
2022-12-11T01:26:43.944Z,83.64
2022-12-11T01:29:12.671Z,83.85
2022-12-11T01:31:40.750Z,84.03
2022-12-11T01:34:09.139Z,84.29
2022-12-11T01:36:37.225Z,84.82
2022-12-11T01:39:05.592Z,83.87
2022-12-11T01:41:35.069Z,83.95
2022-12-11T01:44:06.118Z,84.12
2022-12-11T01:46:35.716Z,83.29
2022-12-11T01:49:06.972Z,83.81
2022-12-11T01:51:41.239Z,83.48
2022-12-11T01:54:13.420Z,83.99
2022-12-11T01:56:45.350Z,83.61
2022-12-11T01:59:19.316Z,83.53
2022-12-11T02:01:51.469Z,83.87
2022-12-11T02:04:21.280Z,84.74
2022-12-11T02:06:52.011Z,84.44
2022-12-11T02:09:23.588Z,83.57
2022-12-11T02:12:03.065Z,83.15
2022-12-11T02:14:37.863Z,83.65
2022-12-11T02:17:13.196Z,83.87
2022-12-11T02:19:59.370Z,83.88
2022-12-11T02:22:46.127Z,84.07
2022-12-11T02:25:22.463Z,85.05
2022-12-11T02:27:56.850Z,84.73
2022-12-11T02:30:27.114Z,85.25
2022-12-11T02:32:57.611Z,85.10
2022-12-11T02:35:30.682Z,83.97
2022-12-11T02:38:04.146Z,85.16
2022-12-11T02:40:37.221Z,84.82
2022-12-11T02:43:09.183Z,85.67
2022-12-11T02:45:42.485Z,85.27
2022-12-11T02:48:13.363Z,84.90
2022-12-11T02:50:47.316Z,85.26
2022-12-11T02:53:19.550Z,85.64
2022-12-11T02:55:52.530Z,85.00
2022-12-11T02:58:25.677Z,85.06
2022-12-11T03:00:55.484Z,83.86
2022-12-11T03:03:24.260Z,84.93
2022-12-11T03:05:52.394Z,84.90
2022-12-11T03:08:20.841Z,85.02
2022-12-11T03:10:49.640Z,83.77
2022-12-11T03:13:21.767Z,84.23
2022-12-11T03:16:12.853Z,84.54
2022-12-11T03:18:50.431Z,85.04
2022-12-11T03:21:26.079Z,84.37
2022-12-11T03:24:03.067Z,84.49
2022-12-11T03:26:34.100Z,85.03
2022-12-11T03:29:05.764Z,85.34
2022-12-11T03:31:42.271Z,85.14
2022-12-11T03:34:19.517Z,84.85
2022-12-11T03:36:51.664Z,85.12
2022-12-11T03:39:26.958Z,84.01
2022-12-11T03:41:57.324Z,85.22
2022-12-11T03:44:26.284Z,84.54
2022-12-11T03:46:58.806Z,85.19
2022-12-11T03:49:31.876Z,83.84
2022-12-11T03:52:02.803Z,84.38
2022-12-11T03:54:32.019Z,84.87
2022-12-11T03:57:04.560Z,84.57
2022-12-11T03:59:32.816Z,85.01
2022-12-11T04:02:03.327Z,84.82
2022-12-11T04:04:31.528Z,84.35
2022-12-11T04:06:59.777Z,84.68
2022-12-11T04:09:28.015Z,84.27
2022-12-11T04:11:56.544Z,83.97
2022-12-11T04:14:42.020Z,84.16
2022-12-11T04:17:12.170Z,83.82
2022-12-11T04:19:57.860Z,83.07
2022-12-11T04:22:43.395Z,83.73
2022-12-11T04:25:11.661Z,83.67
2022-12-11T04:27:53.481Z,84.59
2022-12-11T04:30:26.924Z,83.44
2022-12-11T04:32:59.146Z,83.82
2022-12-11T04:35:27.048Z,84.80
2022-12-11T04:37:54.917Z,85.39
2022-12-11T04:40:23.526Z,83.93
2022-12-11T04:42:51.474Z,84.73
2022-12-11T04:45:20.155Z,84.37
2022-12-11T04:47:48.557Z,84.41
2022-12-11T04:50:18.276Z,84.42
2022-12-11T04:52:46.833Z,83.61
2022-12-11T04:55:14.933Z,84.32
2022-12-11T04:57:42.841Z,84.57
2022-12-11T05:00:13.899Z,84.59
2022-12-11T05:02:43.436Z,85.12
2022-12-11T05:05:12.933Z,84.78
2022-12-11T05:07:43.225Z,84.23
2022-12-11T05:10:11.469Z,84.23
2022-12-11T05:12:39.428Z,84.13
2022-12-11T05:15:09.257Z,83.45
2022-12-11T05:17:37.485Z,83.69
2022-12-11T05:20:06.101Z,84.33
2022-12-11T05:22:34.844Z,83.94
2022-12-11T05:25:04.279Z,83.62
2022-12-11T05:27:32.611Z,84.22
2022-12-11T05:30:01.098Z,83.29
2022-12-11T05:32:30.077Z,82.69
2022-12-11T05:34:58.337Z,83.77
2022-12-11T05:37:26.857Z,84.01
2022-12-11T05:39:54.786Z,82.57
2022-12-11T05:42:28.562Z,83.24
2022-12-11T05:44:57.636Z,82.80
2022-12-11T05:47:25.930Z,83.01
2022-12-11T05:49:54.048Z,82.79
2022-12-11T05:52:33.568Z,83.03
2022-12-11T05:55:01.690Z,83.68
2022-12-11T05:57:31.067Z,83.46
2022-12-11T05:59:59.659Z,82.95
2022-12-11T06:02:27.807Z,82.89
2022-12-11T06:04:55.955Z,83.54
2022-12-11T06:07:24.363Z,83.38
2022-12-11T06:09:52.408Z,82.96
2022-12-11T06:12:20.454Z,82.85
2022-12-11T06:14:50.247Z,83.01
2022-12-11T06:17:18.194Z,83.00
2022-12-11T06:19:46.320Z,82.97
2022-12-11T06:22:14.771Z,82.43
2022-12-11T06:24:42.924Z,83.38
2022-12-11T06:27:11.036Z,83.31
2022-12-11T06:29:39.474Z,83.23
2022-12-11T06:32:08.896Z,82.63
2022-12-11T06:34:36.956Z,83.41
2022-12-11T06:37:05.428Z,82.60
2022-12-11T06:39:33.437Z,82.31
2022-12-11T06:42:01.876Z,82.21
2022-12-11T06:44:29.998Z,82.06
2022-12-11T06:46:58.070Z,82.04
2022-12-11T06:49:27.962Z,83.17
2022-12-11T06:51:55.858Z,84.41
2022-12-11T06:54:27.456Z,84.39
2022-12-11T06:56:55.634Z,83.92
2022-12-11T06:59:23.607Z,83.88
2022-12-11T07:01:52.395Z,84.71
2022-12-11T07:04:20.471Z,83.56
2022-12-11T07:06:50.374Z,83.06
2022-12-11T07:09:18.854Z,82.55
2022-12-11T07:11:46.849Z,82.18
2022-12-11T07:14:14.640Z,81.58
2022-12-11T07:16:43.211Z,83.38
2022-12-11T07:19:11.249Z,84.01
2022-12-11T07:21:39.629Z,82.82
2022-12-11T07:24:10.313Z,82.65
2022-12-11T07:26:38.471Z,82.44
2022-12-11T07:29:06.712Z,82.46
2022-12-11T07:31:35.431Z,81.88
2022-12-11T07:34:06.138Z,81.19
2022-12-11T07:36:36.567Z,81.20
2022-12-11T07:39:05.652Z,80.85
2022-12-11T07:41:35.268Z,79.63
2022-12-11T07:44:07.072Z,79.14
2022-12-11T07:46:35.634Z,80.26
2022-12-11T07:49:03.812Z,79.63
2022-12-11T07:51:34.026Z,79.00
2022-12-11T07:54:04.162Z,79.44
2022-12-11T07:56:35.869Z,78.74
2022-12-11T07:59:05.662Z,78.60
2022-12-11T08:01:37.084Z,78.92
2022-12-11T08:04:06.656Z,79.22
2022-12-11T08:06:37.087Z,79.84
2022-12-11T08:09:15.981Z,79.45
2022-12-11T08:11:50.445Z,80.21
2022-12-11T08:14:18.520Z,78.96
2022-12-11T08:16:46.611Z,78.85
2022-12-11T08:19:15.938Z,78.52
2022-12-11T08:21:44.061Z,78.97
2022-12-11T08:24:12.182Z,78.54
2022-12-11T08:26:41.194Z,78.21
2022-12-11T08:29:11.452Z,78.44
2022-12-11T08:31:41.148Z,79.02
2022-12-11T08:34:09.265Z,77.99
2022-12-11T08:36:37.985Z,77.52
2022-12-11T08:39:06.092Z,77.02
2022-12-11T08:41:34.739Z,77.09
2022-12-11T08:44:05.470Z,78.18
2022-12-11T08:46:36.059Z,77.69
2022-12-11T08:49:04.812Z,78.69
2022-12-11T08:51:33.345Z,79.40
2022-12-11T08:54:02.698Z,79.94
2022-12-11T08:56:31.966Z,80.59
2022-12-11T08:59:02.081Z,78.53
2022-12-11T09:01:30.363Z,77.85
2022-12-11T09:04:00.579Z,78.91
2022-12-11T09:06:31.061Z,78.52
2022-12-11T09:09:02.046Z,79.44
2022-12-11T09:11:33.132Z,79.83
2022-12-11T09:14:07.275Z,78.10
2022-12-11T09:16:37.853Z,78.67
2022-12-11T09:19:09.914Z,79.09
2022-12-11T09:21:38.519Z,76.85
2022-12-11T09:24:07.497Z,77.92
2022-12-11T09:26:36.587Z,76.84
2022-12-11T09:29:08.390Z,77.41
2022-12-11T09:31:38.747Z,76.92
2022-12-11T09:34:11.509Z,75.76
2022-12-11T09:36:40.683Z,74.28
2022-12-11T09:39:10.302Z,75.41
2022-12-11T09:41:40.657Z,75.25
2022-12-11T09:44:21.107Z,76.46
2022-12-11T09:46:50.320Z,75.77
2022-12-11T09:49:35.031Z,75.37
2022-12-11T09:52:11.430Z,73.92
2022-12-11T09:54:44.587Z,75.93
2022-12-11T09:57:33.649Z,76.29
2022-12-11T10:00:11.916Z,74.08
2022-12-11T10:02:54.918Z,75.32
2022-12-11T10:05:32.698Z,75.21
2022-12-11T10:08:11.251Z,75.94
2022-12-11T10:10:45.006Z,75.43
2022-12-11T10:13:23.822Z,75.66
2022-12-11T10:15:56.715Z,74.98
2022-12-11T10:18:28.270Z,74.54
2022-12-11T10:21:02.572Z,76.18
2022-12-11T10:23:35.964Z,75.85
2022-12-11T10:26:08.156Z,75.35
2022-12-11T10:28:37.318Z,72.93
2022-12-11T10:31:14.773Z,78.22
2022-12-11T10:48:54.664Z,75.52
2022-12-11T10:51:25.587Z,73.71
2022-12-11T10:53:57.176Z,75.53
2022-12-11T10:56:29.614Z,75.04
2022-12-11T10:59:00.676Z,76.98
2022-12-11T11:01:32.627Z,79.75
2022-12-11T11:04:07.538Z,80.98
2022-12-11T11:06:36.447Z,79.36
2022-12-11T11:09:08.228Z,79.69
2022-12-11T11:11:39.539Z,80.68
2022-12-11T11:14:14.179Z,81.13
2022-12-11T11:16:44.285Z,81.39
2022-12-11T11:19:22.020Z,80.98
2022-12-11T11:21:53.618Z,81.37
2022-12-11T11:24:30.572Z,81.49
2022-12-11T11:27:14.523Z,80.63
2022-12-11T11:29:47.733Z,83.45
2022-12-11T11:32:24.293Z,84.82
2022-12-11T11:35:08.585Z,82.41
2022-12-11T11:37:36.483Z,82.44
2022-12-11T11:40:09.897Z,83.14
2022-12-11T11:42:44.170Z,81.39
2022-12-11T11:45:17.801Z,81.87
2022-12-11T11:47:52.401Z,80.55
2022-12-11T11:50:28.952Z,80.72
2022-12-11T11:53:03.674Z,79.51
2022-12-11T11:55:44.359Z,79.50
2022-12-11T11:58:19.427Z,78.84
2022-12-11T12:00:48.188Z,80.01
2022-12-11T12:03:19.846Z,78.99
2022-12-11T12:05:57.229Z,76.12
2022-12-11T12:08:39.455Z,76.98
2022-12-11T12:11:17.215Z,76.33
2022-12-11T12:13:57.379Z,77.34
2022-12-11T12:19:38.297Z,77.60
2022-12-11T12:22:21.290Z,77.70
2022-12-11T12:25:01.882Z,77.70
2022-12-11T12:27:54.029Z,77.92
2022-12-11T12:30:23.909Z,80.50
2022-12-11T12:33:13.130Z,78.61
2022-12-11T12:35:51.594Z,77.71
2022-12-11T12:38:27.118Z,77.28
2022-12-11T12:41:04.729Z,76.81
2022-12-11T12:43:49.795Z,77.38
2022-12-11T12:46:30.404Z,77.61
2022-12-11T12:49:01.590Z,77.23
2022-12-11T12:51:31.630Z,76.10
2022-12-11T12:54:11.979Z,75.61
2022-12-11T12:56:44.311Z,80.14
2022-12-11T12:59:22.164Z,76.57
2022-12-11T13:01:55.542Z,75.01
2022-12-11T13:04:55.536Z,78.19
2022-12-11T13:07:30.451Z,76.42
2022-12-11T13:10:08.821Z,76.44
2022-12-11T13:12:44.622Z,79.18
2022-12-11T13:15:37.280Z,78.80
2022-12-11T13:18:27.267Z,78.22
2022-12-11T13:20:55.642Z,76.80
2022-12-11T13:23:30.495Z,75.79
2022-12-11T13:26:02.325Z,77.18
2022-12-11T13:28:47.605Z,77.89
2022-12-11T13:31:40.578Z,78.83
2022-12-11T13:34:16.710Z,78.98
2022-12-11T13:36:49.796Z,78.51
2022-12-11T13:39:21.290Z,79.21
2022-12-11T13:41:56.191Z,80.22
2022-12-11T13:44:28.143Z,79.71
2022-12-11T13:46:59.489Z,80.19
2022-12-11T13:49:31.658Z,80.69
2022-12-11T13:52:01.088Z,80.54
2022-12-11T13:54:30.979Z,81.54
2022-12-11T13:57:14.600Z,81.45
2022-12-11T13:59:45.256Z,81.86
2022-12-11T14:02:20.353Z,82.73
2022-12-11T14:04:51.457Z,81.89
2022-12-11T14:07:26.356Z,82.18
2022-12-11T14:10:01.082Z,81.86
2022-12-11T14:12:32.982Z,82.14
2022-12-11T14:15:03.622Z,83.15
2022-12-11T14:17:34.502Z,82.78
2022-12-11T14:20:07.573Z,83.68
2022-12-11T14:22:37.009Z,82.14
2022-12-11T14:25:22.321Z,81.71
2022-12-11T14:27:55.048Z,80.55
2022-12-11T14:30:25.692Z,81.40
2022-12-11T14:32:57.970Z,81.15
2022-12-11T14:35:37.073Z,82.35
2022-12-11T14:38:12.874Z,80.61
2022-12-11T14:40:46.458Z,82.62
2022-12-11T14:43:25.201Z,82.07
2022-12-11T14:45:59.187Z,81.05
2022-12-11T14:48:32.263Z,80.14
2022-12-11T14:51:03.223Z,80.01
2022-12-11T14:53:35.368Z,81.10
2022-12-11T14:56:06.521Z,81.63
2022-12-11T14:58:45.179Z,81.44
2022-12-11T15:01:25.106Z,81.82
2022-12-11T15:04:04.305Z,81.53
2022-12-11T15:06:35.183Z,81.74
2022-12-11T15:09:21.023Z,82.57
2022-12-11T15:11:52.296Z,82.68
2022-12-11T15:14:24.325Z,82.99
2022-12-11T15:16:56.141Z,82.94
2022-12-11T15:19:30.137Z,81.78
2022-12-11T15:22:04.340Z,82.54
2022-12-11T15:24:39.702Z,82.37
2022-12-11T15:27:16.433Z,83.09
2022-12-11T15:29:46.502Z,83.60
2022-12-11T15:32:21.191Z,83.13
2022-12-11T15:34:51.353Z,83.52
2022-12-11T15:37:24.710Z,82.79
